Uniontown, WA (99179)

11:54 PM PDT on September 01, 2014 (GMT -0700)
Town of Colton | Change Station
CLOSE
Current Station
Personal Weather Station
Location: Colton, WA
Elevation: 2579 ft
Nearby Weather Stations

Elev 2579 ft 46.57 °N, 117.12 °W | Updated 15 seconds ago

Clear
Clear
48.6 °F
Feels Like 49 °F
N
0.0
Wind Variable Wind from SSE
Gusts 2.0 mph

Today
High -- | Low -- °F
--% Chance of Precip.
Yesterday
High -- | Low -- °F
Precip. -- in
6:08 AM 7:27 PM
Waxing Crescent, 48% visible
Pressure 29.91 in
Visibility 10.0 miles
Clouds Clear
Windchill 49 °F
Dew Point 37 °F
Humidity 64%
Rainfall 0.00 in
Snow Depth Not available.
UV 0 out of 12
Pollen 6.70 out of 12
Air Quality Not available.
Flu Activity Not available.
METAR KLWS 020556Z AUTO 00000KT 10SM CLR 18/06 A2993 RMK AO2 SLP127 T01830056 10261 20183 58002 $

More Conditions Fewer Conditions

Pressure 29.91 in
Visibility 10.0 miles
Clouds Clear
Windchill 49 °F
Dew Point 37 °F
Humidity 64%
Rainfall 0.00 in
Snow Depth Not available.
UV 0 out of 12
Pollen 6.70 out of 12
Air Quality Not available.
Flu Activity Not available.
METAR KLWS 020556Z AUTO 00000KT 10SM CLR 18/06 A2993 RMK AO2 SLP127 T01830056 10261 20183 58002 $

More Conditions Fewer Conditions

10-Day Weather Forecast

Almanac

Astronomy

Sep. 01, 2014 Rise Set
Actual Time 6:08 AM PDT 7:27 PM PDT
Civil Twilight 5:37 AM PDT 7:58 PM PDT
Nautical Twilight 4:59 AM PDT 8:35 PM PDT
Astronomical Twilight 4:19 AM PDT 9:15 PM PDT
Moon 1:22 PM PDT (9/1) 11:07 PM PDT (9/1)
Length of Visible Light 14h 21m
Length of Day
13h 18m
Tomorrow will be 3m 11s shorter.
Waxing Crescent, 48% of the Moon is Illuminated
Sep 2
Waxing Crescent
Sep 2
First Quarter
Sep 8
Full
Sep 15
Last Quarter
Sep 24
New

Community

WunderPhotos

Upload Photos

1,749,589 photos uploaded!

WunderBlogs® & News

Nearby

Snow Depth

Station Depth Elevation
Sourdough Gulch 0 in 4000 ft
Spruce Springs 0 in 5700 ft
Touchet 0 in 5530 ft
Quartz Peak 1 in 4700 ft
Bunchgrass Meadow 0 in 5000 ft

Earthquake Activity

City Distance Mag. Time & Date
No recent earthquake activity has been reported nearby.
Minimum magnitude displayed is 2.5.

Coastal Water Temperatures

Place Temperature
No Stations Reporting

Nearby Weather Stations